This is the latest recevied weather packets stored in our database for station/object OK1HOL-13. If no packets are shown the sender has not sent any weather packets the latest 10 day(s).
| Time | Temp. | Humidity | Pressure | Rain* | Wind** | Luminosity | Snow |
|---|---|---|---|---|---|---|---|
| 1777674088 | 13.33° C | 53% | 1026 hPa | - | - | 0 W/m² | - |
| 1777673487 | 13.33° C | 55% | 1026 hPa | - | - | 0 W/m² | - |
| 1777672888 | 13.33° C | 54% | 1026 hPa | - | - | 0 W/m² | - |
| 1777672288 | 13.89° C | 52% | 1026 hPa | - | - | 0 W/m² | - |
| 1777671687 | 13.89° C | 48% | 1025.9 hPa | - | - | 0 W/m² | - |
| 1777671088 | 13.89° C | 50% | 1025.9 hPa | - | - | 0 W/m² | - |
| 1777670487 | 14.44° C | 51% | 1025.8 hPa | - | - | 0 W/m² | - |
| 1777669888 | 15° C | 48% | 1025.9 hPa | - | - | 0 W/m² | - |
| 1777669287 | 15° C | 46% | 1025.9 hPa | - | - | 0 W/m² | - |
| 1777668687 | 15.56° C | 45% | 1025.9 hPa | - | - | 0 W/m² | - |
| 1777668087 | 15.56° C | 45% | 1025.8 hPa | - | - | 0 W/m² | - |
| 1777667487 | 16.11° C | 43% | 1025.8 hPa | - | - | 0 W/m² | - |
| 1777666888 | 16.11° C | 43% | 1025.8 hPa | - | - | 0 W/m² | - |
| 1777666287 | 16.11° C | 43% | 1025.7 hPa | - | - | 0 W/m² | - |
| 1777665687 | 16.11° C | 43% | 1025.7 hPa | - | - | 0 W/m² | - |
| 1777665088 | 17.22° C | 36% | 1025.6 hPa | - | - | 0 W/m² | - |
| 1777664488 | 17.78° C | 36% | 1025.6 hPa | - | - | 0 W/m² | - |
| 1777663887 | 18.33° C | 34% | 1025.6 hPa | - | - | 0 W/m² | - |
| 1777663287 | 18.33° C | 34% | 1025.6 hPa | - | - | 0 W/m² | - |
| 1777662687 | 18.89° C | 33% | 1025.6 hPa | - | - | 0 W/m² | - |
| 1777662088 | 18.89° C | 32% | 1025.5 hPa | - | - | 0 W/m² | - |
| 1777661488 | 19.44° C | 31% | 1025.5 hPa | - | - | 0 W/m² | - |
| 1777660888 | 19.44° C | 30% | 1025.3 hPa | - | - | 0 W/m² | - |
| 1777660287 | 20° C | 29% | 1025.3 hPa | - | - | 0 W/m² | - |
| 1777659688 | 20° C | 28% | 1025.3 hPa | - | - | 1 W/m² | - |
* Rain since midnight (hover to see other rain measurements)
** Current wind speed in m/s (hover to see current wind gust speed)